Time;durP1;ratioP1;P1;durP2;ratioP2;P2;SDS_P1;SDS_P2;PMS_P1;PMS_P2;Temp;Humidity;BMP_temperature;BMP_pressure;BME280_temperature;BME280_humidity;BME280_pressure;Samples;Min_cycle;Max_cycle;Signal;HPM_P1;HPM_P2
2022/07/23 00:00:35;;;;;;;8.18;4.45;;;;;;;;;;4991264;28;20033;-72
2022/07/23 00:03:21;;;;;;;5.75;3.95;;;;;;;;;;4988368;28;20034;-70
2022/07/23 00:06:07;;;;;;;4.50;3.70;;;;;;;;;;4981978;28;20520;-73
2022/07/23 00:08:53;;;;;;;6.57;4.18;;;;;;;;;;4974694;28;20034;-73
2022/07/23 00:11:38;;;;;;;6.68;4.00;;;;;;;;;;4999779;28;20033;-73
2022/07/23 00:14:24;;;;;;;8.15;3.95;;;;;;;;;;5026008;28;20424;-71
2022/07/23 00:17:09;;;;;;;5.25;3.80;;;;;;;;;;5001670;28;20026;-72
2022/07/23 00:19:55;;;;;;;7.70;4.18;;;;;;;;;;4991163;28;20112;-75
2022/07/23 00:22:51;;;;;;;5.90;3.67;;;;;;;;;;4995859;28;20030;-73
2022/07/23 00:25:37;;;;;;;5.90;4.30;;;;;;;;;;5007608;28;20117;-75
2022/07/23 00:28:22;;;;;;;7.05;4.28;;;;;;;;;;5019667;28;20033;-76
2022/07/23 00:31:08;;;;;;;6.65;3.80;;;;;;;;;;5003189;28;20377;-76
2022/07/23 00:33:56;;;;;;;5.13;3.85;;;;;;;;;;5007817;28;20029;-73
2022/07/23 00:36:42;;;;;;;4.30;3.50;;;;;;;;;;5020454;28;20041;-74
2022/07/23 00:39:27;;;;;;;6.07;3.72;;;;;;;;;;4985847;28;20253;-68
2022/07/23 00:42:13;;;;;;;5.40;3.60;;;;;;;;;;5007811;28;20065;-77
2022/07/23 00:44:58;;;;;;;6.03;4.05;;;;;;;;;;5013708;28;20073;-74
2022/07/23 00:47:44;;;;;;;5.63;3.72;;;;;;;;;;4987395;28;20150;-76
2022/07/23 00:50:30;;;;;;;6.40;3.88;;;;;;;;;;4987250;28;20108;-74
2022/07/23 00:53:16;;;;;;;13.38;4.70;;;;;;;;;;4989322;28;20133;-75
2022/07/23 00:56:02;;;;;;;6.07;4.00;;;;;;;;;;5011475;28;20072;-76
2022/07/23 00:58:48;;;;;;;4.93;3.92;;;;;;;;;;5005481;28;20036;-74
2022/07/23 01:01:33;;;;;;;6.80;4.30;;;;;;;;;;4974957;28;20024;-73
2022/07/23 01:04:19;;;;;;;5.53;3.88;;;;;;;;;;4997124;28;20037;-75
2022/07/23 01:07:04;;;;;;;6.22;4.18;;;;;;;;;;4966070;28;20104;-73
2022/07/23 01:09:51;;;;;;;5.68;4.20;;;;;;;;;;4996769;28;20038;-72
2022/07/23 01:12:36;;;;;;;5.25;3.88;;;;;;;;;;4977825;28;20034;-74
2022/07/23 01:15:22;;;;;;;6.47;4.13;;;;;;;;;;4983525;28;20061;-68
2022/07/23 01:18:08;;;;;;;5.63;4.15;;;;;;;;;;4992366;28;20059;-69
2022/07/23 01:20:53;;;;;;;4.63;3.63;;;;;;;;;;4976907;28;20474;-72
2022/07/23 01:23:40;;;;;;;4.95;3.60;;;;;;;;;;4949874;28;20084;-70
2022/07/23 01:26:25;;;;;;;6.38;3.85;;;;;;;;;;4977090;28;20046;-70
2022/07/23 01:29:11;;;;;;;9.75;3.97;;;;;;;;;;4979908;28;20386;-70
2022/07/23 01:31:57;;;;;;;5.68;4.10;;;;;;;;;;4982530;28;20091;-70
2022/07/23 01:34:42;;;;;;;7.00;4.18;;;;;;;;;;4967708;28;20031;-72
2022/07/23 01:37:28;;;;;;;7.32;4.00;;;;;;;;;;4981182;28;20050;-74
2022/07/23 01:40:13;;;;;;;5.35;4.20;;;;;;;;;;4988623;28;20368;-75
2022/07/23 01:42:59;;;;;;;5.55;3.88;;;;;;;;;;4973327;28;20404;-75
2022/07/23 01:45:45;;;;;;;4.18;3.30;;;;;;;;;;5014839;28;20134;-74
2022/07/23 01:48:30;;;;;;;4.22;3.58;;;;;;;;;;4983920;28;20031;-75
2022/07/23 01:51:16;;;;;;;4.40;3.70;;;;;;;;;;4969996;28;20101;-74
2022/07/23 01:54:02;;;;;;;5.72;4.10;;;;;;;;;;4985997;28;20092;-71
2022/07/23 01:56:47;;;;;;;5.78;3.80;;;;;;;;;;4939202;28;20106;-76
2022/07/23 01:59:33;;;;;;;7.13;3.80;;;;;;;;;;4990655;28;20042;-78
2022/07/23 02:02:18;;;;;;;5.32;4.53;;;;;;;;;;4995546;28;20038;-76
2022/07/23 02:05:04;;;;;;;3.78;3.35;;;;;;;;;;4989205;28;20035;-77
2022/07/23 02:07:50;;;;;;;7.03;4.40;;;;;;;;;;5032689;28;20045;-76
2022/07/23 02:10:36;;;;;;;6.13;3.92;;;;;;;;;;5035781;28;20388;-68
2022/07/23 02:13:21;;;;;;;5.30;3.75;;;;;;;;;;5040410;28;20045;-72
2022/07/23 02:16:07;;;;;;;5.68;3.78;;;;;;;;;;5039311;28;20056;-71
2022/07/23 02:18:53;;;;;;;6.13;4.15;;;;;;;;;;5037796;28;20116;-71
2022/07/23 02:21:38;;;;;;;6.57;3.83;;;;;;;;;;5010928;28;20374;-70
2022/07/23 02:24:24;;;;;;;7.18;3.80;;;;;;;;;;5021079;28;20230;-70
2022/07/23 02:27:10;;;;;;;5.28;3.90;;;;;;;;;;5034438;28;20036;-73
2022/07/23 02:29:55;;;;;;;5.20;4.00;;;;;;;;;;5037972;28;20056;-75
2022/07/23 02:32:41;;;;;;;7.28;3.83;;;;;;;;;;5037559;28;20031;-70
2022/07/23 02:35:26;;;;;;;6.03;4.28;;;;;;;;;;5039734;28;20455;-67
2022/07/23 02:38:12;;;;;;;4.95;3.95;;;;;;;;;;5022973;28;20036;-68
2022/07/23 02:40:57;;;;;;;5.68;3.78;;;;;;;;;;5021545;28;20036;-68
2022/07/23 02:43:43;;;;;;;4.90;3.58;;;;;;;;;;5036649;28;20068;-68
2022/07/23 02:46:29;;;;;;;5.65;4.20;;;;;;;;;;5012027;28;20026;-69
2022/07/23 02:49:14;;;;;;;4.93;3.78;;;;;;;;;;5007890;28;20077;-73
2022/07/23 02:52:00;;;;;;;6.30;3.92;;;;;;;;;;5030900;28;20701;-70
2022/07/23 02:54:45;;;;;;;6.88;3.95;;;;;;;;;;5025437;28;20067;-70
2022/07/23 02:57:31;;;;;;;6.43;4.13;;;;;;;;;;5040154;28;20063;-70
2022/07/23 03:00:16;;;;;;;7.97;4.65;;;;;;;;;;5040710;28;20068;-70
2022/07/23 03:03:02;;;;;;;5.47;4.00;;;;;;;;;;5014889;28;20021;-73
2022/07/23 03:05:48;;;;;;;6.82;4.00;;;;;;;;;;5034516;28;20057;-71
2022/07/23 03:08:33;;;;;;;6.65;3.85;;;;;;;;;;5033415;28;20511;-77
2022/07/23 03:11:19;;;;;;;5.28;3.88;;;;;;;;;;5023684;28;20029;-74
2022/07/23 03:14:05;;;;;;;6.72;3.75;;;;;;;;;;5034113;28;20124;-74
2022/07/23 03:16:51;;;;;;;4.95;3.83;;;;;;;;;;5021937;28;20119;-76
2022/07/23 03:19:38;;;;;;;6.72;4.13;;;;;;;;;;5031912;28;20029;-74
2022/07/23 03:22:23;;;;;;;5.75;4.25;;;;;;;;;;5033431;28;20026;-74
2022/07/23 03:25:09;;;;;;;6.72;4.18;;;;;;;;;;5010412;28;20147;-74
2022/07/23 03:27:55;;;;;;;5.63;4.00;;;;;;;;;;5014111;28;20025;-74
2022/07/23 03:30:41;;;;;;;5.40;4.22;;;;;;;;;;5015427;28;20026;-75
2022/07/23 03:33:26;;;;;;;5.28;3.92;;;;;;;;;;5002980;28;20040;-76
2022/07/23 03:36:12;;;;;;;5.35;4.10;;;;;;;;;;5017941;28;20045;-75
2022/07/23 03:38:57;;;;;;;6.85;4.40;;;;;;;;;;5016701;28;20037;-75
2022/07/23 03:41:43;;;;;;;7.25;4.40;;;;;;;;;;5026569;28;20033;-75
2022/07/23 03:44:28;;;;;;;4.93;3.95;;;;;;;;;;5015998;28;20030;-74
2022/07/23 03:47:15;;;;;;;5.75;4.15;;;;;;;;;;4983845;28;20073;-73
2022/07/23 03:50:01;;;;;;;6.82;4.07;;;;;;;;;;5014334;28;20467;-73
2022/07/23 03:52:46;;;;;;;5.72;4.18;;;;;;;;;;4993263;28;20046;-73
2022/07/23 03:55:32;;;;;;;6.25;4.22;;;;;;;;;;4980775;28;20125;-72
2022/07/23 03:58:17;;;;;;;4.55;3.80;;;;;;;;;;5000347;28;20552;-72
2022/07/23 04:01:03;;;;;;;6.55;4.32;;;;;;;;;;4977088;28;20046;-72
2022/07/23 04:03:48;;;;;;;5.95;4.30;;;;;;;;;;4994990;28;20037;-74
2022/07/23 04:06:35;;;;;;;5.13;3.95;;;;;;;;;;4994481;28;20077;-70
2022/07/23 04:09:20;;;;;;;5.60;4.28;;;;;;;;;;5000192;28;20121;-70
2022/07/23 04:12:06;;;;;;;6.95;4.18;;;;;;;;;;4983311;28;20039;-70
2022/07/23 04:14:52;;;;;;;6.95;4.32;;;;;;;;;;5006766;28;20393;-70
2022/07/23 04:17:37;;;;;;;8.52;4.80;;;;;;;;;;5009655;28;20088;-70
2022/07/23 04:20:23;;;;;;;5.72;4.25;;;;;;;;;;4974143;28;20030;-72
2022/07/23 04:23:09;;;;;;;5.40;4.35;;;;;;;;;;4991976;28;20037;-72
2022/07/23 04:25:55;;;;;;;6.97;4.32;;;;;;;;;;4993381;28;20028;-72
2022/07/23 04:28:40;;;;;;;6.70;4.85;;;;;;;;;;5021357;28;20383;-73
2022/07/23 04:31:26;;;;;;;7.18;4.63;;;;;;;;;;5039815;28;20060;-72
2022/07/23 04:34:12;;;;;;;6.22;4.22;;;;;;;;;;5022135;28;20025;-72
2022/07/23 04:36:57;;;;;;;6.25;4.57;;;;;;;;;;5011030;28;20044;-71
2022/07/23 04:39:44;;;;;;;10.23;4.75;;;;;;;;;;4995584;28;20096;-68
2022/07/23 04:42:30;;;;;;;5.50;4.07;;;;;;;;;;5017711;28;20397;-70
2022/07/23 04:45:15;;;;;;;6.75;4.28;;;;;;;;;;5006754;28;20164;-68
2022/07/23 04:48:01;;;;;;;7.05;4.15;;;;;;;;;;5014137;28;20481;-68
2022/07/23 04:50:46;;;;;;;6.38;4.22;;;;;;;;;;5013602;28;20373;-68
2022/07/23 04:53:32;;;;;;;7.70;4.78;;;;;;;;;;5008836;28;20046;-69
2022/07/23 04:56:18;;;;;;;5.85;4.43;;;;;;;;;;5016529;28;20073;-74
2022/07/23 04:59:03;;;;;;;6.57;4.47;;;;;;;;;;5004603;28;20025;-74
2022/07/23 05:01:49;;;;;;;5.90;3.85;;;;;;;;;;4988932;28;20034;-67
2022/07/23 05:04:35;;;;;;;7.32;4.05;;;;;;;;;;5016943;28;20041;-69
2022/07/23 05:07:20;;;;;;;6.35;4.40;;;;;;;;;;5014173;28;20025;-68
2022/07/23 05:10:06;;;;;;;5.88;4.75;;;;;;;;;;5012069;28;20140;-69
2022/07/23 05:12:51;;;;;;;7.43;4.63;;;;;;;;;;4992801;28;20038;-69
2022/07/23 05:15:37;;;;;;;8.48;4.63;;;;;;;;;;4996991;28;20077;-74
2022/07/23 05:18:23;;;;;;;5.75;4.40;;;;;;;;;;4990665;28;20030;-72
2022/07/23 05:21:08;;;;;;;7.05;4.25;;;;;;;;;;4978141;28;20026;-72
2022/07/23 05:23:54;;;;;;;6.22;3.80;;;;;;;;;;4970166;28;20093;-73
2022/07/23 05:26:39;;;;;;;5.22;4.13;;;;;;;;;;4982516;28;20036;-72
2022/07/23 05:29:25;;;;;;;4.63;3.60;;;;;;;;;;4967226;28;20041;-73
2022/07/23 05:32:11;;;;;;;9.40;4.57;;;;;;;;;;4994414;28;20038;-72
2022/07/23 05:34:56;;;;;;;5.82;4.57;;;;;;;;;;4986341;28;20036;-72
2022/07/23 05:37:42;;;;;;;5.68;4.38;;;;;;;;;;5022768;28;20032;-74
2022/07/23 05:40:28;;;;;;;5.25;4.25;;;;;;;;;;5015302;28;20032;-75
2022/07/23 05:43:13;;;;;;;7.10;4.80;;;;;;;;;;5021014;28;20037;-75
2022/07/23 05:45:59;;;;;;;6.57;4.20;;;;;;;;;;4986737;28;20046;-75
2022/07/23 05:48:49;;;;;;;6.72;4.43;;;;;;;;;;4982529;28;20493;-75
2022/07/23 05:51:34;;;;;;;8.52;4.82;;;;;;;;;;4991909;28;20482;-74
2022/07/23 05:54:20;;;;;;;6.47;4.90;;;;;;;;;;5027574;28;20041;-73
2022/07/23 05:57:06;;;;;;;5.50;4.63;;;;;;;;;;5005394;28;20045;-75
2022/07/23 05:59:51;;;;;;;7.47;5.00;;;;;;;;;;5016404;28;20030;-74
2022/07/23 06:02:38;;;;;;;7.40;4.97;;;;;;;;;;4997861;28;20392;-74
2022/07/23 06:05:23;;;;;;;6.78;4.15;;;;;;;;;;5006753;28;20030;-74
2022/07/23 06:08:09;;;;;;;7.35;5.10;;;;;;;;;;5005585;28;20056;-74
2022/07/23 06:10:55;;;;;;;6.50;5.03;;;;;;;;;;4989626;28;20038;-75
2022/07/23 06:13:40;;;;;;;8.18;4.85;;;;;;;;;;5015093;28;20124;-72
2022/07/23 06:16:26;;;;;;;6.70;5.28;;;;;;;;;;5004745;28;20040;-73
2022/07/23 06:19:11;;;;;;;8.15;4.57;;;;;;;;;;4975057;28;20473;-73
2022/07/23 06:21:57;;;;;;;7.63;4.47;;;;;;;;;;4991650;28;20029;-73
2022/07/23 06:24:43;;;;;;;6.53;5.35;;;;;;;;;;5019037;28;20034;-72
2022/07/23 06:27:28;;;;;;;6.03;4.60;;;;;;;;;;5001808;28;20409;-73
2022/07/23 06:30:16;;;;;;;7.00;4.60;;;;;;;;;;4987466;28;20489;-74
2022/07/23 06:33:01;;;;;;;6.18;5.00;;;;;;;;;;5006159;28;20525;-73
2022/07/23 06:35:47;;;;;;;6.05;4.47;;;;;;;;;;4999051;28;20037;-73
2022/07/23 06:38:32;;;;;;;7.38;4.88;;;;;;;;;;4966297;28;20041;-74
2022/07/23 06:41:18;;;;;;;8.00;4.90;;;;;;;;;;4972637;28;20177;-73
2022/07/23 06:44:04;;;;;;;5.65;4.68;;;;;;;;;;4985850;28;20044;-75
2022/07/23 06:46:49;;;;;;;7.93;4.75;;;;;;;;;;4992888;28;20042;-71
2022/07/23 06:49:35;;;;;;;7.90;5.25;;;;;;;;;;5003504;28;20040;-75
2022/07/23 06:52:20;;;;;;;6.05;4.90;;;;;;;;;;4971302;28;20042;-75
2022/07/23 06:55:06;;;;;;;6.93;4.45;;;;;;;;;;4966323;28;20042;-76
2022/07/23 06:57:52;;;;;;;9.20;5.15;;;;;;;;;;4973827;28;20045;-75
2022/07/23 07:00:37;;;;;;;6.80;5.00;;;;;;;;;;4963484;28;20030;-76
2022/07/23 07:03:23;;;;;;;7.78;5.13;;;;;;;;;;4967628;28;20472;-76
2022/07/23 07:06:09;;;;;;;10.13;5.72;;;;;;;;;;4997269;28;20044;-75
2022/07/23 07:08:55;;;;;;;7.45;5.00;;;;;;;;;;5036453;28;20024;-74
2022/07/23 07:11:41;;;;;;;6.40;4.90;;;;;;;;;;5007184;28;20117;-72
2022/07/23 07:14:27;;;;;;;6.53;5.00;;;;;;;;;;5005612;28;20056;-74
2022/07/23 07:17:12;;;;;;;9.02;5.00;;;;;;;;;;4996368;28;20499;-72
2022/07/23 07:19:58;;;;;;;8.00;5.22;;;;;;;;;;4980055;28;20045;-73
2022/07/23 07:22:44;;;;;;;5.57;4.43;;;;;;;;;;4977797;28;20393;-71
2022/07/23 07:25:29;;;;;;;5.95;4.68;;;;;;;;;;4965580;28;20023;-75
2022/07/23 07:28:15;;;;;;;8.05;5.10;;;;;;;;;;4985700;28;20465;-73
2022/07/23 07:31:00;;;;;;;7.45;4.00;;;;;;;;;;5001039;28;20063;-74
2022/07/23 07:33:46;;;;;;;7.82;4.93;;;;;;;;;;5003607;28;20095;-73
2022/07/23 07:36:32;;;;;;;8.85;4.72;;;;;;;;;;4987917;28;20420;-73
2022/07/23 07:39:18;;;;;;;9.18;5.18;;;;;;;;;;5004213;28;20096;-74
2022/07/23 07:42:03;;;;;;;9.82;5.15;;;;;;;;;;4966887;28;20104;-73
2022/07/23 07:44:49;;;;;;;9.85;5.05;;;;;;;;;;4978841;28;20054;-76
2022/07/23 07:47:35;;;;;;;7.30;4.78;;;;;;;;;;4998384;28;20084;-72
2022/07/23 07:50:21;;;;;;;7.13;5.15;;;;;;;;;;5006626;28;20040;-71
2022/07/23 07:53:06;;;;;;;7.93;5.25;;;;;;;;;;5011667;28;20071;-71
2022/07/23 07:55:52;;;;;;;7.55;4.63;;;;;;;;;;4970657;28;20104;-71
2022/07/23 07:58:38;;;;;;;10.70;4.80;;;;;;;;;;4985598;28;20022;-71
2022/07/23 08:01:23;;;;;;;7.10;4.78;;;;;;;;;;4995091;28;20029;-70
2022/07/23 08:04:09;;;;;;;7.78;5.28;;;;;;;;;;4975376;28;20038;-73
2022/07/23 08:06:54;;;;;;;5.47;4.47;;;;;;;;;;4959629;28;20038;-73
2022/07/23 08:09:40;;;;;;;6.22;5.00;;;;;;;;;;5007803;28;20397;-73
2022/07/23 08:12:25;;;;;;;6.63;4.63;;;;;;;;;;5004074;28;20026;-74
2022/07/23 08:15:16;;;;;;;7.03;4.88;;;;;;;;;;4999472;28;20037;-74
2022/07/23 08:18:02;;;;;;;5.35;4.28;;;;;;;;;;5009541;28;20472;-76
2022/07/23 08:20:47;;;;;;;6.53;4.60;;;;;;;;;;5003552;28;20053;-72
2022/07/23 08:23:34;;;;;;;6.90;4.40;;;;;;;;;;5007730;28;20037;-71
2022/07/23 08:26:20;;;;;;;5.78;4.20;;;;;;;;;;5004691;28;20111;-72
2022/07/23 08:29:05;;;;;;;9.82;4.93;;;;;;;;;;5002293;28;20137;-71
2022/07/23 08:31:51;;;;;;;6.90;4.75;;;;;;;;;;5000672;28;20048;-72
2022/07/23 08:34:36;;;;;;;6.25;4.60;;;;;;;;;;4980880;28;20413;-72
2022/07/23 08:37:22;;;;;;;10.13;5.30;;;;;;;;;;5014759;28;20034;-75
2022/07/23 08:40:08;;;;;;;6.40;4.20;;;;;;;;;;5002283;28;20081;-73
2022/07/23 08:42:54;;;;;;;7.85;5.22;;;;;;;;;;4998412;28;20044;-71
2022/07/23 08:45:44;;;;;;;6.40;4.80;;;;;;;;;;5013337;28;20034;-71
2022/07/23 08:48:34;;;;;;;6.25;4.93;;;;;;;;;;5000573;28;20022;-74
2022/07/23 08:51:20;;;;;;;6.85;4.53;;;;;;;;;;5023095;28;20111;-73
2022/07/23 08:54:06;;;;;;;7.07;4.38;;;;;;;;;;5006530;28;20060;-73
2022/07/23 08:56:51;;;;;;;6.50;4.70;;;;;;;;;;5019778;28;21385;-74
2022/07/23 08:59:37;;;;;;;5.65;4.63;;;;;;;;;;5022956;28;20405;-76
2022/07/23 09:02:22;;;;;;;7.63;5.50;;;;;;;;;;4987971;28;20050;-75
2022/07/23 09:05:10;;;;;;;6.43;4.78;;;;;;;;;;4997017;28;20044;-75
2022/07/23 09:08:15;;;;;;;7.70;4.97;;;;;;;;;;5020501;28;20040;-76
2022/07/23 09:11:02;;;;;;;5.70;4.38;;;;;;;;;;5012292;28;20079;-76
2022/07/23 09:13:47;;;;;;;8.23;4.65;;;;;;;;;;4972679;28;20104;-73
2022/07/23 09:16:33;;;;;;;5.32;4.47;;;;;;;;;;5021063;28;20045;-75
2022/07/23 09:19:27;;;;;;;6.20;4.45;;;;;;;;;;5020750;28;20136;-76
2022/07/23 09:22:16;;;;;;;8.18;3.85;;;;;;;;;;4991608;28;20575;-78
2022/07/23 09:25:05;;;;;;;6.13;4.40;;;;;;;;;;5001455;28;20465;-78
2022/07/23 09:27:53;;;;;;;5.57;4.57;;;;;;;;;;4987415;28;20037;-76
2022/07/23 09:30:41;;;;;;;5.93;4.68;;;;;;;;;;5026649;28;20041;-76
2022/07/23 09:33:26;;;;;;;6.95;4.32;;;;;;;;;;5016359;28;20037;-69
2022/07/23 09:36:13;;;;;;;6.07;3.97;;;;;;;;;;5010358;28;20033;-71
2022/07/23 09:38:58;;;;;;;8.15;4.10;;;;;;;;;;5007040;28;20382;-72
2022/07/23 09:41:45;;;;;;;5.45;4.25;;;;;;;;;;5011461;28;20040;-71
2022/07/23 09:44:40;;;;;;;5.70;4.30;;;;;;;;;;5016364;28;20048;-72
2022/07/23 09:47:27;;;;;;;6.97;4.25;;;;;;;;;;4964184;28;20042;-72
2022/07/23 09:50:13;;;;;;;5.32;4.13;;;;;;;;;;4979069;28;20146;-72
2022/07/23 09:52:59;;;;;;;7.07;4.63;;;;;;;;;;5009374;28;21161;-69
2022/07/23 09:55:45;;;;;;;5.75;4.15;;;;;;;;;;5022050;28;20116;-75
2022/07/23 09:58:31;;;;;;;4.78;4.13;;;;;;;;;;5006573;28;20025;-74
2022/07/23 10:01:16;;;;;;;5.78;4.38;;;;;;;;;;5011362;28;20033;-74
2022/07/23 10:04:02;;;;;;;6.47;4.68;;;;;;;;;;5021390;28;20416;-73
2022/07/23 10:06:51;;;;;;;6.10;4.95;;;;;;;;;;5013856;28;20397;-73
2022/07/23 10:09:38;;;;;;;6.00;4.22;;;;;;;;;;5011067;28;20061;-71
2022/07/23 10:15:12;;;;;;;8.35;4.32;;;;;;;;;;5001774;28;20055;-70
2022/07/23 10:17:58;;;;;;;6.05;4.45;;;;;;;;;;5027094;28;20029;-70
2022/07/23 10:20:43;;;;;;;6.13;5.13;;;;;;;;;;4993861;28;20072;-70
2022/07/23 10:23:32;;;;;;;8.43;5.00;;;;;;;;;;4997328;28;20079;-70
2022/07/23 10:26:22;;;;;;;8.40;5.60;;;;;;;;;;4989677;28;20034;-72
2022/07/23 10:29:10;;;;;;;7.00;4.75;;;;;;;;;;5012093;28;20041;-76
2022/07/23 10:32:07;;;;;;;7.50;5.28;;;;;;;;;;5006890;28;20455;-72
2022/07/23 10:35:07;;;;;;;8.18;5.15;;;;;;;;;;4990108;28;20041;-71
2022/07/23 10:38:07;;;;;;;7.45;4.55;;;;;;;;;;5003489;28;20045;-71
2022/07/23 10:40:56;;;;;;;6.93;4.88;;;;;;;;;;5021484;28;20021;-71
2022/07/23 10:43:42;;;;;;;7.82;4.20;;;;;;;;;;5002173;28;20524;-71
2022/07/23 10:49:27;;;;;;;6.30;4.22;;;;;;;;;;5023846;28;20026;-71
2022/07/23 10:52:13;;;;;;;6.38;4.85;;;;;;;;;;5019658;28;20487;-71
2022/07/23 10:55:01;;;;;;;6.90;4.10;;;;;;;;;;5025587;28;20123;-72
2022/07/23 10:57:48;;;;;;;6.93;4.40;;;;;;;;;;5040256;28;20060;-71
2022/07/23 11:00:34;;;;;;;6.95;4.65;;;;;;;;;;5035484;28;20120;-72
2022/07/23 11:03:38;;;;;;;5.95;4.18;;;;;;;;;;5025831;28;20037;-72
2022/07/23 11:06:44;;;;;;;6.43;5.05;;;;;;;;;;4994156;28;20041;-72
2022/07/23 11:09:37;;;;;;;5.68;4.20;;;;;;;;;;4999688;28;20029;-72
2022/07/23 11:12:29;;;;;;;7.25;4.53;;;;;;;;;;5035588;28;20468;-73
2022/07/23 11:15:14;;;;;;;7.25;5.10;;;;;;;;;;5029150;28;20487;-73
2022/07/23 11:18:00;;;;;;;6.97;4.95;;;;;;;;;;5008520;28;20041;-73
2022/07/23 11:20:46;;;;;;;8.05;5.13;;;;;;;;;;5035801;28;20025;-73
2022/07/23 11:23:50;;;;;;;6.45;4.82;;;;;;;;;;5034153;28;20023;-67
2022/07/23 11:26:50;;;;;;;5.45;4.32;;;;;;;;;;5032341;28;20029;-69
2022/07/23 11:29:35;;;;;;;6.00;4.65;;;;;;;;;;5019359;28;20445;-67
2022/07/23 11:32:28;;;;;;;7.57;4.85;;;;;;;;;;5010582;28;20081;-69
2022/07/23 11:35:25;;;;;;;7.40;4.70;;;;;;;;;;5027234;28;20047;-69
2022/07/23 11:38:21;;;;;;;7.50;4.32;;;;;;;;;;5020965;28;20030;-69
2022/07/23 11:41:07;;;;;;;6.18;4.80;;;;;;;;;;5020736;28;20048;-72
2022/07/23 11:43:53;;;;;;;5.70;4.53;;;;;;;;;;5019421;28;20024;-70
2022/07/23 11:46:38;;;;;;;6.40;4.80;;;;;;;;;;5036963;28;20281;-73
2022/07/23 11:49:24;;;;;;;7.25;5.10;;;;;;;;;;5028349;28;20488;-75
2022/07/23 11:52:11;;;;;;;5.93;4.70;;;;;;;;;;4998283;28;20050;-73
2022/07/23 11:55:02;;;;;;;8.55;5.28;;;;;;;;;;4982497;28;20038;-73
2022/07/23 11:57:50;;;;;;;8.30;5.07;;;;;;;;;;5010832;28;20444;-72
2022/07/23 12:00:40;;;;;;;8.07;4.75;;;;;;;;;;5021368;28;20021;-74
2022/07/23 12:03:25;;;;;;;6.60;4.50;;;;;;;;;;5024993;28;20055;-69
2022/07/23 12:06:11;;;;;;;7.05;5.72;;;;;;;;;;5041066;28;20138;-70
2022/07/23 12:08:56;;;;;;;8.48;5.50;;;;;;;;;;5013803;28;20056;-69
2022/07/23 12:12:00;;;;;;;6.72;4.95;;;;;;;;;;4996623;28;20119;-70
2022/07/23 12:14:50;;;;;;;6.85;5.20;;;;;;;;;;4979809;28;20035;-70
2022/07/23 12:17:37;;;;;;;7.53;5.53;;;;;;;;;;4986663;28;20026;-70
2022/07/23 12:20:25;;;;;;;8.45;5.07;;;;;;;;;;4959812;28;20047;-72
2022/07/23 12:23:11;;;;;;;8.43;5.43;;;;;;;;;;4969047;28;20078;-74
2022/07/23 12:26:00;;;;;;;6.32;4.78;;;;;;;;;;4955718;28;20482;-75
2022/07/23 12:28:51;;;;;;;6.50;5.05;;;;;;;;;;4994271;28;20103;-74
2022/07/23 12:31:38;;;;;;;8.50;4.78;;;;;;;;;;5000299;28;20088;-72
2022/07/23 12:34:23;;;;;;;7.13;5.25;;;;;;;;;;4997759;28;20065;-74
2022/07/23 12:37:24;;;;;;;5.53;4.80;;;;;;;;;;5004507;28;21218;-73
2022/07/23 12:40:19;;;;;;;7.25;4.95;;;;;;;;;;5007396;28;20038;-76
2022/07/23 12:43:06;;;;;;;8.20;4.70;;;;;;;;;;5033752;28;20021;-74
2022/07/23 12:45:51;;;;;;;6.82;4.78;;;;;;;;;;5003242;28;20040;-74
2022/07/23 12:48:57;;;;;;;6.03;4.90;;;;;;;;;;5034356;28;20406;-75
2022/07/23 12:51:43;;;;;;;7.15;5.00;;;;;;;;;;5033867;28;20123;-74
2022/07/23 12:54:28;;;;;;;8.23;5.20;;;;;;;;;;5038932;28;20033;-73
2022/07/23 12:57:14;;;;;;;6.50;5.28;;;;;;;;;;5022166;28;20029;-72
2022/07/23 13:00:09;;;;;;;8.40;5.53;;;;;;;;;;5008223;28;20393;-70
2022/07/23 13:02:55;;;;;;;7.60;4.95;;;;;;;;;;5022759;28;20485;-71
2022/07/23 13:05:41;;;;;;;7.38;5.15;;;;;;;;;;5032056;28;20452;-70
2022/07/23 13:08:28;;;;;;;6.78;5.28;;;;;;;;;;5003466;28;20120;-71
2022/07/23 13:11:13;;;;;;;6.68;5.32;;;;;;;;;;4999808;28;20397;-72
2022/07/23 13:14:02;;;;;;;7.70;5.38;;;;;;;;;;5012767;28;20471;-76
2022/07/23 13:16:52;;;;;;;6.53;5.18;;;;;;;;;;5041229;28;20033;-74
2022/07/23 13:19:37;;;;;;;10.55;5.82;;;;;;;;;;5039918;28;20053;-74
2022/07/23 13:22:23;;;;;;;7.28;5.30;;;;;;;;;;5043616;28;20107;-75
2022/07/23 13:25:08;;;;;;;7.18;5.25;;;;;;;;;;5036024;28;20033;-75
2022/07/23 13:27:54;;;;;;;6.72;4.85;;;;;;;;;;5029479;28;20545;-74
2022/07/23 13:30:40;;;;;;;7.22;5.40;;;;;;;;;;5024157;28;20047;-75
2022/07/23 13:33:26;;;;;;;7.18;4.63;;;;;;;;;;5041910;28;20056;-72
2022/07/23 13:36:12;;;;;;;6.68;4.93;;;;;;;;;;5009010;28;20053;-71
2022/07/23 13:38:57;;;;;;;6.28;5.25;;;;;;;;;;5019861;28;20037;-72
2022/07/23 13:41:43;;;;;;;7.50;4.70;;;;;;;;;;5024315;28;20018;-72
2022/07/23 13:44:28;;;;;;;6.35;5.32;;;;;;;;;;5000075;28;20028;-73
2022/07/23 13:47:14;;;;;;;9.45;5.00;;;;;;;;;;5023717;28;20044;-72
2022/07/23 13:50:00;;;;;;;6.45;4.97;;;;;;;;;;5040368;28;20072;-74
2022/07/23 13:52:45;;;;;;;6.60;5.07;;;;;;;;;;5029158;28;20504;-75
2022/07/23 13:55:31;;;;;;;6.60;4.80;;;;;;;;;;4997501;28;20033;-69
2022/07/23 13:58:17;;;;;;;9.50;5.25;;;;;;;;;;5013673;28;20052;-69
2022/07/23 14:01:02;;;;;;;6.97;5.38;;;;;;;;;;5023210;28;20034;-70
2022/07/23 14:03:48;;;;;;;6.68;5.35;;;;;;;;;;4996340;28;20210;-70
2022/07/23 14:06:34;;;;;;;8.52;5.68;;;;;;;;;;5013619;28;20025;-70
2022/07/23 14:09:20;;;;;;;6.20;4.88;;;;;;;;;;5027649;28;20045;-75
2022/07/23 14:12:06;;;;;;;6.68;5.35;;;;;;;;;;5022539;28;20428;-73
2022/07/23 14:14:51;;;;;;;6.50;5.25;;;;;;;;;;5013113;28;20041;-75
2022/07/23 14:17:39;;;;;;;8.88;5.38;;;;;;;;;;5022959;28;20028;-76
2022/07/23 14:20:25;;;;;;;9.90;5.90;;;;;;;;;;5032502;28;20036;-74
2022/07/23 14:23:10;;;;;;;6.88;5.50;;;;;;;;;;5036601;28;20033;-74
2022/07/23 14:25:56;;;;;;;10.88;7.32;;;;;;;;;;5021822;28;20480;-75
2022/07/23 14:28:41;;;;;;;6.50;5.38;;;;;;;;;;5018898;28;20025;-75
2022/07/23 14:31:27;;;;;;;6.95;4.88;;;;;;;;;;5035937;28;20455;-71
2022/07/23 14:34:13;;;;;;;8.38;5.80;;;;;;;;;;5015681;28;20561;-70
2022/07/23 14:36:59;;;;;;;7.75;5.50;;;;;;;;;;5013100;28;20053;-70
2022/07/23 14:39:44;;;;;;;6.57;4.95;;;;;;;;;;5005755;28;20045;-71
2022/07/23 14:42:30;;;;;;;8.73;5.63;;;;;;;;;;5011501;28;20037;-70
2022/07/23 14:45:16;;;;;;;7.90;5.90;;;;;;;;;;5020054;28;20037;-75
2022/07/23 14:48:02;;;;;;;6.32;5.05;;;;;;;;;;5031486;28;20113;-74
2022/07/23 14:50:48;;;;;;;6.75;4.85;;;;;;;;;;5010592;28;20070;-75
2022/07/23 14:53:34;;;;;;;8.20;5.38;;;;;;;;;;5022679;28;20044;-74
2022/07/23 14:56:19;;;;;;;8.40;5.65;;;;;;;;;;5009868;28;20118;-74
2022/07/23 14:59:05;;;;;;;6.97;5.22;;;;;;;;;;5012743;28;20037;-74
2022/07/23 15:01:51;;;;;;;8.68;6.47;;;;;;;;;;5023155;28;20029;-74
2022/07/23 15:04:37;;;;;;;9.20;6.47;;;;;;;;;;5013398;28;20037;-73
2022/07/23 15:07:22;;;;;;;7.47;6.03;;;;;;;;;;5002763;28;20524;-68
2022/07/23 15:10:08;;;;;;;7.90;5.43;;;;;;;;;;5003182;28;20026;-73
2022/07/23 15:12:54;;;;;;;7.53;5.22;;;;;;;;;;4985836;28;20033;-69
2022/07/23 15:15:40;;;;;;;6.60;4.97;;;;;;;;;;5018872;28;20377;-69
2022/07/23 15:18:25;;;;;;;9.52;5.78;;;;;;;;;;5008063;28;20030;-69
2022/07/23 15:21:11;;;;;;;6.40;4.70;;;;;;;;;;4997550;28;20476;-69
2022/07/23 15:24:00;;;;;;;8.07;5.78;;;;;;;;;;5036668;28;20059;-76
2022/07/23 15:26:45;;;;;;;7.18;5.13;;;;;;;;;;5039803;28;20045;-75
2022/07/23 15:29:31;;;;;;;7.75;5.55;;;;;;;;;;5038053;28;20081;-75
2022/07/23 15:32:17;;;;;;;8.27;5.85;;;;;;;;;;5038008;28;20040;-73
2022/07/23 15:35:05;;;;;;;7.22;5.45;;;;;;;;;;5039653;28;20484;-77
2022/07/23 15:37:50;;;;;;;6.50;5.32;;;;;;;;;;5037569;28;20261;-75
2022/07/23 15:40:36;;;;;;;9.15;5.57;;;;;;;;;;5033360;28;20033;-68
2022/07/23 15:43:22;;;;;;;8.98;5.80;;;;;;;;;;5019150;28;20092;-74
2022/07/23 15:46:08;;;;;;;7.63;5.38;;;;;;;;;;5020530;28;20033;-71
2022/07/23 15:48:53;;;;;;;9.55;6.28;;;;;;;;;;5019697;28;20100;-70
2022/07/23 15:51:39;;;;;;;8.85;5.63;;;;;;;;;;5017057;28;20029;-72
2022/07/23 15:54:24;;;;;;;9.05;5.68;;;;;;;;;;5019406;28;20045;-71
2022/07/23 15:57:10;;;;;;;7.57;5.78;;;;;;;;;;4996642;28;20081;-70
2022/07/23 15:59:56;;;;;;;6.85;5.45;;;;;;;;;;4985091;28;20037;-75
2022/07/23 16:02:41;;;;;;;8.25;5.70;;;;;;;;;;4987599;28;20384;-76
2022/07/23 16:05:27;;;;;;;6.18;5.13;;;;;;;;;;4997276;28;20036;-76
2022/07/23 16:08:12;;;;;;;10.70;6.28;;;;;;;;;;5005085;28;20041;-75
2022/07/23 16:10:58;;;;;;;8.10;5.38;;;;;;;;;;4972931;28;20035;-77
2022/07/23 16:13:44;;;;;;;7.70;5.35;;;;;;;;;;4977883;28;26563;-77
2022/07/23 16:16:30;;;;;;;8.55;6.07;;;;;;;;;;4975913;28;20421;-76
2022/07/23 16:19:16;;;;;;;8.38;6.32;;;;;;;;;;4998388;28;20239;-73
2022/07/23 16:22:01;;;;;;;9.57;6.53;;;;;;;;;;5007325;28;20033;-74
2022/07/23 16:24:47;;;;;;;8.52;5.40;;;;;;;;;;4995536;28;20040;-72
2022/07/23 16:27:34;;;;;;;8.38;5.85;;;;;;;;;;4981412;28;20104;-72
2022/07/23 16:30:19;;;;;;;6.50;5.45;;;;;;;;;;5011445;28;21059;-72
2022/07/23 16:33:05;;;;;;;7.82;5.30;;;;;;;;;;5025262;28;20534;-71
2022/07/23 16:35:50;;;;;;;8.95;5.47;;;;;;;;;;4996152;28;20030;-69
2022/07/23 16:38:37;;;;;;;9.15;6.80;;;;;;;;;;5000664;28;20501;-70
2022/07/23 16:41:22;;;;;;;10.60;6.53;;;;;;;;;;4993296;28;20050;-72
2022/07/23 16:44:08;;;;;;;8.38;6.18;;;;;;;;;;5023804;28;20124;-73